createdAt,value
2022-10-02T00:06:07.576Z,11.6
2022-10-02T00:16:09.509Z,11.5
2022-10-02T00:26:11.936Z,11.5
2022-10-02T00:36:14.123Z,11.6
2022-10-02T00:46:16.250Z,11.6
2022-10-02T00:56:18.828Z,11.7
2022-10-02T01:06:21.201Z,11.8
2022-10-02T01:16:23.200Z,12
2022-10-02T01:56:30.297Z,12
2022-10-02T02:16:34.404Z,11.9
2022-10-02T02:26:36.410Z,12
2022-10-02T02:56:42.043Z,12.1
2022-10-02T03:06:44.225Z,12
2022-10-02T03:16:46.779Z,11.9
2022-10-02T03:36:50.701Z,11.9
2022-10-02T03:46:52.784Z,12
2022-10-02T04:06:56.385Z,12.2
2022-10-02T04:16:58.731Z,12.3
2022-10-02T04:37:02.483Z,12.5
2022-10-02T05:17:11.281Z,12.5
2022-10-02T05:37:15.476Z,12.5
2022-10-02T05:47:18.006Z,12.5
2022-10-02T06:07:22.412Z,12.6
2022-10-02T06:17:24.338Z,12.7
2022-10-02T06:47:31.477Z,13
2022-10-02T07:37:42.723Z,13.5
2022-10-02T07:47:44.411Z,13.6
2022-10-02T07:57:47.051Z,13.7
2022-10-02T08:07:48.685Z,13.9
2022-10-02T08:17:51.163Z,14.1
2022-10-02T08:27:53.624Z,14.2
2022-10-02T08:37:55.596Z,14.3
2022-10-02T08:47:58.159Z,14.5
2022-10-02T08:58:00.376Z,14.5
2022-10-02T09:08:03.017Z,14.7
2022-10-02T09:18:04.996Z,14.7
2022-10-02T09:28:07.506Z,14.7
2022-10-02T09:38:09.841Z,15.1
2022-10-02T09:48:12.433Z,15
2022-10-02T09:58:14.204Z,15.2
2022-10-02T10:08:16.478Z,15.6
2022-10-02T10:18:18.401Z,15.5
2022-10-02T10:38:22.630Z,15.7
2022-10-02T10:48:25.207Z,15.5
2022-10-02T10:58:27.581Z,15.8
2022-10-02T11:08:29.425Z,16.2
2022-10-02T11:18:31.547Z,16.7
2022-10-02T11:28:34.110Z,16.4
2022-10-02T11:38:35.764Z,16.7
2022-10-02T11:48:37.752Z,16.4
2022-10-02T11:58:39.924Z,16.3
2022-10-02T12:08:42.156Z,16.5
2022-10-02T12:18:44.651Z,16.3
2022-10-02T12:28:53.232Z,16
2022-10-02T12:38:55.152Z,16.1
2022-10-02T12:48:57.514Z,16
2022-10-02T12:58:59.954Z,16.1
2022-10-02T13:09:02.559Z,16
2022-10-02T13:19:05.088Z,14.7
2022-10-02T13:39:10.071Z,14.8
2022-10-02T13:49:12.507Z,14.9
2022-10-02T13:59:14.454Z,14.8
2022-10-02T14:19:21.292Z,14.9
2022-10-02T14:29:19.754Z,15.7
2022-10-02T14:39:21.759Z,16.2
2022-10-02T14:49:24.279Z,16.5
2022-10-02T14:59:26.790Z,16
2022-10-02T15:09:28.597Z,16.3
2022-10-02T15:19:31.190Z,16.8
2022-10-02T15:29:33.682Z,16.5
2022-10-02T15:39:36.208Z,16.9
2022-10-02T15:49:38.623Z,16.1
2022-10-02T15:59:40.737Z,16.2
2022-10-02T16:09:42.972Z,16.1
2022-10-02T16:19:45.250Z,15.7
2022-10-02T16:29:47.809Z,15.4
2022-10-02T16:39:50.219Z,14.9
2022-10-02T16:49:52.351Z,14.5
2022-10-02T16:59:54.315Z,14.1
2022-10-02T17:09:55.996Z,13.8
2022-10-02T17:19:58.142Z,13.6
2022-10-02T17:30:00.322Z,13.3
2022-10-02T17:40:02.808Z,13
2022-10-02T17:50:04.462Z,12.9
2022-10-02T18:00:06.135Z,12.7
2022-10-02T18:10:08.721Z,12.5
2022-10-02T18:20:10.414Z,12.4
2022-10-02T18:30:12.650Z,12.1
2022-10-02T18:40:15.081Z,11.9
2022-10-02T18:50:16.777Z,11.8
2022-10-02T19:00:19.262Z,11.8
2022-10-02T19:10:21.554Z,11.8
2022-10-02T19:20:23.546Z,11.7
2022-10-02T19:30:25.958Z,11.5
2022-10-02T19:40:27.916Z,11.4
2022-10-02T19:50:29.930Z,11.2
2022-10-02T20:00:34.374Z,11.1
2022-10-02T20:20:35.832Z,11.1
2022-10-02T20:30:37.957Z,10.9
2022-10-02T20:40:40.089Z,10.8
2022-10-02T21:00:44.514Z,10.5
2022-10-02T21:10:46.436Z,10.1
2022-10-02T21:20:51.504Z,9.9
2022-10-02T21:30:50.671Z,9.7
2022-10-02T22:20:59.622Z,8.9
2022-10-02T22:31:02.407Z,8.9
2022-10-02T22:41:04.010Z,8.8
2022-10-02T22:51:06.632Z,8.8
2022-10-02T23:01:08.693Z,8.8
2022-10-02T23:11:10.735Z,8.7
2022-10-02T23:21:12.709Z,8.7
2022-10-02T23:51:18.725Z,8.4
